Danmarkshavn

KL  EN  DA
ASIAQ
Weather Now GREENLAND SURVEY
Updated [WGT/WGST] Temperature [°C] Wind [m/s] Air pressure [hPa] Relative humidity [%] Precipitation [mm]
Present Wind chill Speed Max
27.09 01:00-3,2-7,12,8 ⇘4,2102468n/a
27.09 00:00-3,3-5,71,6 ⇘2,8102473n/a
26.09 23:00-3,80,01,2 ⇒4,0102476n/a
26.09 22:00-3,3-6,01,8 ⇐4,8102371n/a
26.09 21:00-3,5-8,94,4 ⇘6,3102371n/a
26.09 20:00-2,6-8,25,0 ⇓7,2102367n/a
26.09 19:00-2,7-7,53,9 ⇓6,6102372n/a
26.09 18:00-2,9-7,73,8 ⇓6,2102264n/a
26.09 17:00-3,3-8,13,7 ⇘6,1102161n/a
26.09 16:00-3,1-8,44,4 ⇘7,6102159n/a
26.09 15:00-3,1-8,14,0 ⇘7,8102164n/a
26.09 14:00-1,8-7,14,9 ⇒7,8102054n/a
26.09 13:00-2,9-9,26,1 ⇘12,2101963n/a
26.09 12:00-2,7-10,610,0 ⇘12,7101961n/a
26.09 11:00-1,7-9,29,8 ⇘13,1101854n/a
26.09 10:00-1,6-8,37,8 ⇒11,6101952n/a
26.09 09:00-3,3-11,39,7 ⇘12,9101961n/a
26.09 08:00-4,4-12,69,3 ⇒11,0101965n/a
26.09 07:00-4,2-11,77,8 ⇘13,0101961n/a
26.09 06:00-3,0-11,210,5 ⇓13,5101857n/a
26.09 05:00-3,6-11,08,1 ⇘11,5101858n/a
26.09 04:00-4,4-12,38,5 ⇘12,4101860n/a
26.09 03:00-3,5-11,18,5 ⇓12,7101761n/a
26.09 02:00-3,6-12,010,7 ⇓13,0101761n/a
26.09 01:00-2,8-11,010,8 ⇓12,7101758n/a
Position: (76.76944444444,-18.66805555)

[Back]